createdAt,value
2022-08-30T00:02:10.829Z,101527.72
2022-08-30T00:04:37.742Z,101533.16
2022-08-30T00:07:04.677Z,101536.63
2022-08-30T00:09:32.253Z,101536.13
2022-08-30T00:11:59.180Z,101554.19
2022-08-30T00:14:27.647Z,101541.75
2022-08-30T00:16:54.657Z,101546.06
2022-08-30T00:19:21.469Z,101543.59
2022-08-30T00:21:48.383Z,101556.50
2022-08-30T00:24:15.216Z,101546.22
2022-08-30T00:26:42.018Z,101562.44
2022-08-30T00:29:08.856Z,101557.97
2022-08-30T00:31:35.717Z,101567.06
2022-08-30T00:34:02.737Z,101563.41
2022-08-30T00:36:29.599Z,101568.72
2022-08-30T00:38:56.422Z,101563.75
2022-08-30T00:41:23.278Z,101561.63
2022-08-30T00:43:50.096Z,101572.38
2022-08-30T00:46:16.950Z,101575.34
2022-08-30T00:48:45.395Z,101562.94
2022-08-30T00:51:13.004Z,101577.84
2022-08-30T00:53:42.538Z,101578.84
2022-08-30T00:56:10.168Z,101573.88
2022-08-30T00:58:39.517Z,101577.19
2022-08-30T01:01:07.021Z,101566.59
2022-08-30T01:03:34.237Z,101562.59
2022-08-30T01:06:01.180Z,101565.44
2022-08-30T01:08:28.025Z,101570.72
2022-08-30T01:10:54.925Z,101567.25
2022-08-30T01:13:22.765Z,101578.50
2022-08-30T01:15:50.775Z,101572.22
2022-08-30T01:18:18.910Z,101566.75
2022-08-30T01:20:49.596Z,101574.53
2022-08-30T01:23:18.502Z,101574.22
2022-08-30T01:25:46.719Z,101566.09
2022-08-30T01:28:20.161Z,101580.16
2022-08-30T01:30:47.380Z,101584.13
2022-08-30T01:33:14.280Z,101581.47
2022-08-30T01:36:03.517Z,101578.28
2022-08-30T01:38:35.580Z,101559.56
2022-08-30T01:41:24.858Z,101574.47
2022-08-30T01:43:53.122Z,101569.69
2022-08-30T01:46:20.726Z,101570.66
2022-08-30T01:48:53.803Z,101578.13
2022-08-30T01:51:21.937Z,101584.88
2022-08-30T01:53:48.800Z,101582.75
2022-08-30T01:56:15.778Z,101579.16
2022-08-30T01:58:42.677Z,101583.94
2022-08-30T02:01:12.749Z,101574.97
2022-08-30T02:03:40.804Z,101584.78
2022-08-30T02:06:09.179Z,101582.47
2022-08-30T02:08:36.220Z,101588.91
2022-08-30T02:11:03.656Z,101582.31
2022-08-30T02:13:30.698Z,101587.78
2022-08-30T02:15:57.656Z,101582.13
2022-08-30T02:18:25.180Z,101591.75
2022-08-30T02:20:52.082Z,101581.78
2022-08-30T02:23:18.996Z,101579.47
2022-08-30T02:25:45.941Z,101588.78
2022-08-30T02:28:14.955Z,101586.28
2022-08-30T02:30:42.904Z,101589.25
2022-08-30T02:33:09.833Z,101585.78
2022-08-30T02:35:36.719Z,101592.06
2022-08-30T02:38:04.241Z,101586.38
2022-08-30T02:40:31.217Z,101584.22
2022-08-30T02:42:58.598Z,101589.34
2022-08-30T02:45:25.620Z,101592.13
2022-08-30T02:47:52.639Z,101593.66
2022-08-30T02:50:19.520Z,101601.25
2022-08-30T02:52:48.354Z,101603.41
2022-08-30T02:55:15.398Z,101598.28
2022-08-30T02:57:43.640Z,101601.16
2022-08-30T03:00:12.841Z,101594.88
2022-08-30T03:02:40.627Z,101606.28
2022-08-30T03:05:08.756Z,101588.22
2022-08-30T03:07:35.601Z,101608.09
2022-08-30T03:10:02.480Z,101601.97
2022-08-30T03:12:29.319Z,101603.63
2022-08-30T03:14:56.605Z,101608.09
2022-08-30T03:17:23.618Z,101605.31
2022-08-30T03:19:51.328Z,101608.28
2022-08-30T03:22:18.538Z,101611.69
2022-08-30T03:24:45.963Z,101605.22
2022-08-30T03:27:13.053Z,101598.63
2022-08-30T03:29:39.911Z,101604.88
2022-08-30T03:32:06.844Z,101602.84
2022-08-30T03:34:33.660Z,101605.16
2022-08-30T03:37:01.497Z,101605.50
2022-08-30T03:39:28.358Z,101607.44
2022-08-30T03:41:55.218Z,101605.63
2022-08-30T03:44:22.378Z,101607.59
2022-08-30T03:46:49.217Z,101609.06
2022-08-30T03:49:16.360Z,101614.16
2022-08-30T03:51:43.499Z,101607.72
2022-08-30T03:54:10.324Z,101604.88
2022-08-30T03:56:37.357Z,101599.22
2022-08-30T03:59:04.237Z,101616.25
2022-08-30T04:01:31.131Z,101617.28
2022-08-30T04:03:57.996Z,101620.44
2022-08-30T04:06:24.818Z,101623.09
2022-08-30T04:08:51.840Z,101632.19
2022-08-30T04:11:18.917Z,101638.16
2022-08-30T04:13:46.418Z,101626.06
2022-08-30T04:16:13.304Z,101645.44
2022-08-30T04:18:40.182Z,101633.88
2022-08-30T04:21:09.491Z,101648.44
2022-08-30T04:23:38.699Z,101643.00
2022-08-30T04:26:05.739Z,101652.75
2022-08-30T04:28:34.061Z,101646.97
2022-08-30T04:31:02.438Z,101653.06
2022-08-30T04:33:29.245Z,101653.41
2022-08-30T04:35:56.141Z,101652.09
2022-08-30T04:38:25.492Z,101650.78
2022-08-30T04:40:54.438Z,101647.69
2022-08-30T04:43:21.218Z,101640.63
2022-08-30T04:45:48.354Z,101637.00
2022-08-30T04:48:16.716Z,101650.94
2022-08-30T04:50:43.638Z,101650.81
2022-08-30T04:53:10.540Z,101649.31
2022-08-30T04:55:37.700Z,101652.47
2022-08-30T04:58:06.003Z,101656.75
2022-08-30T05:00:33.031Z,101653.47
2022-08-30T05:03:00.344Z,101666.88
2022-08-30T05:05:42.567Z,101675.16
2022-08-30T05:08:10.659Z,101666.19
2022-08-30T05:10:41.917Z,101671.66
2022-08-30T05:13:08.822Z,101666.69
2022-08-30T05:15:36.079Z,101675.81
2022-08-30T05:18:04.361Z,101676.78
2022-08-30T05:20:31.239Z,101680.59
2022-08-30T05:22:58.081Z,101688.91
2022-08-30T05:25:26.656Z,101683.78
2022-08-30T05:27:53.703Z,101687.41
2022-08-30T05:30:20.759Z,101682.75
2022-08-30T05:32:47.575Z,101681.31
2022-08-30T05:35:15.602Z,101693.53
2022-08-30T05:37:42.516Z,101694.69
2022-08-30T05:40:11.091Z,101694.53
2022-08-30T05:42:38.408Z,101680.44
2022-08-30T05:45:05.940Z,101690.19
2022-08-30T05:47:32.780Z,101690.19
2022-08-30T05:49:59.798Z,101675.56
2022-08-30T05:52:26.597Z,101691.13
2022-08-30T05:54:55.048Z,101686.13
2022-08-30T05:57:22.260Z,101685.13
2022-08-30T05:59:49.139Z,101680.47
2022-08-30T06:02:16.077Z,101686.63
2022-08-30T06:04:43.300Z,101686.63
2022-08-30T06:07:12.937Z,101690.66
2022-08-30T06:09:42.179Z,101689.78
2022-08-30T06:12:09.157Z,101681.47
2022-08-30T06:14:36.676Z,101681.94
2022-08-30T06:17:03.540Z,101674.56
2022-08-30T06:19:30.419Z,101676.25
2022-08-30T06:21:57.383Z,101681.91
2022-08-30T06:24:35.687Z,101685.00
2022-08-30T06:27:10.057Z,101689.16
2022-08-30T06:29:36.947Z,101697.50
2022-08-30T06:32:03.858Z,101694.50
2022-08-30T06:34:30.789Z,101692.97
2022-08-30T06:36:57.614Z,101708.09
2022-08-30T06:39:24.463Z,101706.97
2022-08-30T06:41:51.279Z,101704.22
2022-08-30T06:44:18.137Z,101710.84
2022-08-30T06:46:45.525Z,101716.00
2022-08-30T06:49:12.484Z,101717.59
2022-08-30T06:51:39.790Z,101710.75
2022-08-30T06:54:07.143Z,101706.31
2022-08-30T06:56:40.280Z,101710.84
2022-08-30T06:59:09.540Z,101712.75
2022-08-30T07:01:36.519Z,101722.72
2022-08-30T07:04:03.664Z,101717.50
2022-08-30T07:06:30.979Z,101718.56
2022-08-30T07:08:57.843Z,101720.19
2022-08-30T07:11:29.098Z,101725.69
2022-08-30T07:13:56.345Z,101734.31
2022-08-30T07:16:23.381Z,101740.81
2022-08-30T07:18:56.398Z,101743.94
2022-08-30T07:21:25.970Z,101741.09
2022-08-30T07:23:53.752Z,101748.25
2022-08-30T07:26:26.101Z,101750.91
2022-08-30T07:28:55.886Z,101734.72
2022-08-30T07:31:23.688Z,101745.06
2022-08-30T07:33:50.680Z,101748.66
2022-08-30T07:36:18.039Z,101756.25
2022-08-30T07:38:48.307Z,101758.78
2022-08-30T07:41:27.068Z,101755.50
2022-08-30T07:43:54.120Z,101754.97
2022-08-30T07:46:21.692Z,101762.06
2022-08-30T07:48:48.743Z,101770.69
2022-08-30T07:51:17.982Z,101764.22
2022-08-30T07:53:44.942Z,101768.03
2022-08-30T07:56:11.892Z,101758.41
2022-08-30T07:58:39.782Z,101769.38
2022-08-30T08:01:07.682Z,101768.69
2022-08-30T08:03:35.265Z,101771.78
2022-08-30T08:06:04.968Z,101767.56
2022-08-30T08:08:31.842Z,101769.63
2022-08-30T08:10:58.900Z,101775.34
2022-08-30T08:13:28.578Z,101780.50
2022-08-30T08:15:59.605Z,101774.88
2022-08-30T08:18:26.480Z,101775.25
2022-08-30T08:20:53.906Z,101779.91
2022-08-30T08:23:23.145Z,101800.75
2022-08-30T08:25:49.986Z,101792.16
2022-08-30T08:28:17.000Z,101798.03
2022-08-30T08:30:48.064Z,101804.16
2022-08-30T08:33:15.236Z,101794.88
2022-08-30T08:35:43.488Z,101808.00
2022-08-30T08:38:10.349Z,101805.03
2022-08-30T08:41:11.048Z,101814.19
2022-08-30T08:43:37.943Z,101814.28
2022-08-30T08:46:10.935Z,101814.28
2022-08-30T08:48:59.527Z,101821.78
2022-08-30T08:51:47.646Z,101825.28
2022-08-30T08:54:39.243Z,101833.09
2022-08-30T08:57:06.141Z,101832.25
2022-08-30T08:59:32.979Z,101817.72
2022-08-30T09:02:01.880Z,101833.50
2022-08-30T09:04:36.089Z,101827.22
2022-08-30T09:07:06.838Z,101839.25
2022-08-30T09:09:36.721Z,101838.78
2022-08-30T09:12:04.839Z,101840.78
2022-08-30T09:14:34.853Z,101839.13
2022-08-30T09:17:11.440Z,101838.50
2022-08-30T09:19:53.730Z,101841.84
2022-08-30T09:22:31.398Z,101843.81
2022-08-30T09:25:23.975Z,101842.84
2022-08-30T09:27:52.327Z,101844.28
2022-08-30T09:30:27.381Z,101846.09
2022-08-30T09:33:20.535Z,101841.69
2022-08-30T09:35:49.203Z,101847.16
2022-08-30T09:38:23.180Z,101845.50
2022-08-30T09:40:51.958Z,101846.31
2022-08-30T09:43:18.683Z,101842.81
2022-08-30T09:46:02.732Z,101837.16
2022-08-30T09:48:48.589Z,101845.88
2022-08-30T09:51:39.317Z,101836.56
2022-08-30T09:54:25.559Z,101837.03
2022-08-30T09:57:33.782Z,101843.03
2022-08-30T10:00:19.131Z,101842.03
2022-08-30T10:03:04.791Z,101845.84
2022-08-30T10:05:50.044Z,101847.88
2022-08-30T10:08:37.339Z,101850.34
2022-08-30T10:11:33.260Z,101846.31
2022-08-30T10:14:00.121Z,101852.78
2022-08-30T10:16:41.863Z,101847.44
2022-08-30T10:19:29.739Z,101856.25
2022-08-30T10:22:03.317Z,101858.16
2022-08-30T10:24:40.379Z,101859.84
2022-08-30T10:27:32.845Z,101859.72
2022-08-30T10:30:03.781Z,101851.25
2022-08-30T10:32:40.619Z,101849.38
2022-08-30T10:35:08.558Z,101850.22
2022-08-30T10:37:48.902Z,101854.88
2022-08-30T10:40:49.782Z,101855.53
2022-08-30T10:43:39.186Z,101844.13
2022-08-30T10:46:09.799Z,101846.81
2022-08-30T10:48:40.482Z,101845.94
2022-08-30T10:51:15.641Z,101841.72
2022-08-30T10:54:19.910Z,101854.69
2022-08-30T10:56:49.318Z,101850.69
2022-08-30T10:59:17.398Z,101863.25
2022-08-30T11:01:56.820Z,101853.41
2022-08-30T11:05:00.933Z,101851.47
2022-08-30T11:08:04.878Z,101853.84
2022-08-30T11:10:38.858Z,101844.94
2022-08-30T11:13:08.161Z,101846.41
2022-08-30T11:15:36.556Z,101838.75
2022-08-30T11:18:09.565Z,101853.22
2022-08-30T11:20:44.845Z,101835.41
2022-08-30T11:23:33.365Z,101853.91
2022-08-30T11:26:20.379Z,101841.84
2022-08-30T11:28:48.342Z,101864.19
2022-08-30T11:31:18.272Z,101866.09
2022-08-30T11:33:48.951Z,101875.63
2022-08-30T11:36:46.119Z,101871.84
2022-08-30T11:39:42.977Z,101880.38
2022-08-30T11:42:30.145Z,101878.81
2022-08-30T11:45:28.617Z,101875.94
2022-08-30T11:47:59.604Z,101868.63
2022-08-30T11:50:40.178Z,101866.81
2022-08-30T11:53:25.706Z,101868.19
2022-08-30T11:56:10.223Z,101869.31
2022-08-30T11:59:05.309Z,101869.63
2022-08-30T12:01:52.001Z,101864.72
2022-08-30T12:04:19.872Z,101859.75
2022-08-30T12:06:48.119Z,101865.09
2022-08-30T12:09:17.663Z,101859.72
2022-08-30T12:12:02.802Z,101867.31
2022-08-30T12:14:38.000Z,101872.53
2022-08-30T12:17:35.465Z,101870.81
2022-08-30T12:20:02.369Z,101875.38
2022-08-30T12:22:30.685Z,101875.50
2022-08-30T12:24:57.938Z,101875.81
2022-08-30T12:27:32.986Z,101872.63
2022-08-30T12:30:01.816Z,101883.75
2022-08-30T12:32:29.335Z,101880.13
2022-08-30T12:34:59.817Z,101869.63
2022-08-30T12:37:36.774Z,101875.81
2022-08-30T12:40:23.168Z,101880.03
2022-08-30T12:42:58.251Z,101873.97
2022-08-30T12:45:27.456Z,101873.75
2022-08-30T12:48:11.485Z,101870.44
2022-08-30T12:50:52.107Z,101874.44
2022-08-30T12:53:33.779Z,101870.75
2022-08-30T12:56:06.435Z,101868.06
2022-08-30T12:58:52.080Z,101869.44
2022-08-30T13:01:28.320Z,101864.16
2022-08-30T13:03:58.459Z,101868.81
2022-08-30T13:06:52.180Z,101868.31
2022-08-30T13:09:39.097Z,101867.50
2022-08-30T13:12:09.903Z,101866.84
2022-08-30T13:14:39.036Z,101875.84
2022-08-30T13:17:20.424Z,101884.41
2022-08-30T13:20:12.243Z,101881.41
2022-08-30T13:22:40.636Z,101883.63
2022-08-30T13:25:09.015Z,101888.53
2022-08-30T13:27:37.160Z,101884.97
2022-08-30T13:30:14.798Z,101876.59
2022-08-30T13:32:41.819Z,101878.94
2022-08-30T13:35:09.139Z,101878.72
2022-08-30T13:37:51.914Z,101870.91
2022-08-30T13:40:19.709Z,101875.63
2022-08-30T13:42:46.893Z,101866.16
2022-08-30T13:48:01.522Z,101859.03
2022-08-30T13:50:28.355Z,101868.69
2022-08-30T13:52:57.303Z,101864.84
2022-08-30T13:55:24.184Z,101859.25
2022-08-30T13:57:55.104Z,101874.31
2022-08-30T14:00:23.501Z,101869.84
2022-08-30T14:02:54.607Z,101863.97
2022-08-30T14:06:04.645Z,101875.53
2022-08-30T14:08:45.826Z,101879.28
2022-08-30T14:11:18.353Z,101882.84
2022-08-30T14:16:32.895Z,101863.63
2022-08-30T14:19:00.326Z,101862.28
2022-08-30T14:21:27.360Z,101864.19
2022-08-30T14:23:56.015Z,101870.88
2022-08-30T14:26:33.731Z,101865.16
2022-08-30T14:29:05.452Z,101851.34
2022-08-30T14:31:36.632Z,101853.84
2022-08-30T14:34:04.358Z,101856.22
2022-08-30T14:36:32.925Z,101871.16
2022-08-30T14:39:00.807Z,101864.91
2022-08-30T14:41:27.645Z,101871.19
2022-08-30T14:43:54.482Z,101883.84
2022-08-30T14:46:22.237Z,101891.88
2022-08-30T14:48:50.282Z,101884.56
2022-08-30T14:51:18.979Z,101890.56
2022-08-30T14:53:46.043Z,101891.41
2022-08-30T14:56:15.558Z,101896.75
2022-08-30T14:58:42.588Z,101897.13
2022-08-30T15:01:10.285Z,101902.81
2022-08-30T15:03:39.819Z,101893.91
2022-08-30T15:06:07.135Z,101896.63
2022-08-30T15:08:34.706Z,101897.72
2022-08-30T15:11:01.719Z,101896.25
2022-08-30T15:13:29.020Z,101893.69
2022-08-30T15:15:56.900Z,101898.13
2022-08-30T15:18:24.671Z,101898.09
2022-08-30T15:20:51.476Z,101896.47
2022-08-30T15:23:18.359Z,101891.16
2022-08-30T15:25:49.846Z,101898.97
2022-08-30T15:28:17.067Z,101871.41
2022-08-30T15:30:44.517Z,101889.16
2022-08-30T15:33:11.340Z,101888.81
2022-08-30T15:35:38.169Z,101889.16
2022-08-30T15:38:04.981Z,101885.81
2022-08-30T15:40:34.929Z,101892.09
2022-08-30T15:43:04.966Z,101886.78
2022-08-30T15:45:31.886Z,101898.41
2022-08-30T15:48:00.161Z,101896.28
2022-08-30T15:50:27.384Z,101881.38
2022-08-30T15:52:55.065Z,101892.47
2022-08-30T15:55:22.290Z,101890.53
2022-08-30T15:57:49.138Z,101889.88
2022-08-30T16:00:16.446Z,101884.59
2022-08-30T16:02:44.049Z,101885.75
2022-08-30T16:05:11.100Z,101879.63
2022-08-30T16:07:40.861Z,101879.13
2022-08-30T16:10:08.942Z,101883.28
2022-08-30T16:12:35.809Z,101878.47
2022-08-30T16:15:02.610Z,101887.25
2022-08-30T16:17:29.502Z,101882.97
2022-08-30T16:19:58.941Z,101875.34
2022-08-30T16:22:26.639Z,101878.97
2022-08-30T16:24:53.655Z,101878.66
2022-08-30T16:27:21.096Z,101884.47
2022-08-30T16:29:48.599Z,101887.78
2022-08-30T16:32:17.663Z,101884.13
2022-08-30T16:34:45.222Z,101890.06
2022-08-30T16:37:12.108Z,101888.44
2022-08-30T16:39:38.884Z,101884.94
2022-08-30T16:42:06.862Z,101888.09
2022-08-30T16:44:34.078Z,101887.72
2022-08-30T16:47:01.763Z,101884.91
2022-08-30T16:49:28.720Z,101883.84
2022-08-30T16:51:56.106Z,101872.94
2022-08-30T16:54:23.433Z,101882.19
2022-08-30T16:56:50.458Z,101885.03
2022-08-30T16:59:17.778Z,101893.31
2022-08-30T17:01:45.896Z,101889.84
2022-08-30T17:04:19.305Z,101894.13
2022-08-30T17:06:48.043Z,101894.13
2022-08-30T17:09:16.845Z,101896.78
2022-08-30T17:11:44.878Z,101893.81
2022-08-30T17:14:11.959Z,101897.09
2022-08-30T17:16:38.952Z,101895.44
2022-08-30T17:19:08.415Z,101892.41
2022-08-30T17:21:35.381Z,101894.00
2022-08-30T17:24:03.360Z,101899.44
2022-08-30T17:26:34.381Z,101904.84
2022-08-30T17:29:01.298Z,101902.91
2022-08-30T17:31:31.093Z,101902.75
2022-08-30T17:34:03.337Z,101910.00
2022-08-30T17:36:35.541Z,101920.38
2022-08-30T17:39:10.638Z,101917.50
2022-08-30T17:41:39.301Z,101919.53
2022-08-30T17:44:06.301Z,101907.31
2022-08-30T17:46:34.341Z,101920.25
2022-08-30T17:49:01.705Z,101917.97
2022-08-30T17:51:29.430Z,101929.47
2022-08-30T17:53:57.163Z,101933.06
2022-08-30T17:56:24.740Z,101935.03
2022-08-30T17:59:01.244Z,101922.94
2022-08-30T18:01:28.658Z,101931.75
2022-08-30T18:04:01.572Z,101934.47
2022-08-30T18:06:29.252Z,101925.88
2022-08-30T18:08:56.203Z,101933.88
2022-08-30T18:11:23.237Z,101935.97
2022-08-30T18:13:50.345Z,101940.16
2022-08-30T18:16:18.689Z,101945.88
2022-08-30T18:18:52.641Z,101948.44
2022-08-30T18:21:23.882Z,101955.66
2022-08-30T18:23:52.939Z,101942.34
2022-08-30T18:26:23.985Z,101957.75
2022-08-30T18:29:06.659Z,101953.63
2022-08-30T18:31:33.611Z,101967.78
2022-08-30T18:34:00.510Z,101961.13
2022-08-30T18:36:28.320Z,101956.84
2022-08-30T18:38:55.207Z,101961.84
2022-08-30T18:41:22.299Z,101962.69
2022-08-30T18:43:55.027Z,101964.50
2022-08-30T18:46:28.847Z,101961.31
2022-08-30T18:48:56.041Z,101971.75
2022-08-30T18:51:24.779Z,101972.16
2022-08-30T18:53:51.659Z,101969.50
2022-08-30T18:56:18.579Z,101968.66
2022-08-30T18:58:47.523Z,101961.38
2022-08-30T19:01:18.375Z,101958.16
2022-08-30T19:03:49.139Z,101964.38
2022-08-30T19:06:16.669Z,101967.41
2022-08-30T19:08:45.854Z,101957.81
2022-08-30T19:11:13.002Z,101967.53
2022-08-30T19:13:39.946Z,101970.41
2022-08-30T19:16:06.980Z,101965.41
2022-08-30T19:18:34.031Z,101969.53
2022-08-30T19:21:03.577Z,101961.31
2022-08-30T19:23:34.327Z,101977.84
2022-08-30T19:26:01.419Z,101976.00
2022-08-30T19:28:28.542Z,101972.69
2022-08-30T19:30:55.421Z,101968.53
2022-08-30T19:33:22.283Z,101972.59
2022-08-30T19:35:51.316Z,101970.94
2022-08-30T19:38:18.653Z,101973.59
2022-08-30T19:40:51.043Z,101970.53
2022-08-30T19:43:20.842Z,101971.63
2022-08-30T19:45:55.721Z,101975.00
2022-08-30T19:48:23.813Z,101974.34
2022-08-30T19:50:56.441Z,101980.91
2022-08-30T19:53:24.561Z,101986.19
2022-08-30T19:55:51.622Z,101976.75
2022-08-30T19:58:18.501Z,101981.03
2022-08-30T20:00:54.518Z,101981.88
2022-08-30T20:03:28.164Z,101991.06
2022-08-30T20:05:55.162Z,101983.28
2022-08-30T20:08:22.120Z,101982.75
2022-08-30T20:10:49.121Z,101988.22
2022-08-30T20:13:19.450Z,101983.94
2022-08-30T20:15:56.348Z,101986.59
2022-08-30T20:18:26.078Z,101987.31
2022-08-30T20:20:53.357Z,101983.13
2022-08-30T20:23:21.770Z,101991.31
2022-08-30T20:25:54.668Z,101988.97
2022-08-30T20:28:21.911Z,101990.78
2022-08-30T20:30:49.288Z,101991.19
2022-08-30T20:33:16.531Z,101992.59
2022-08-30T20:35:48.729Z,101996.47
2022-08-30T20:38:21.450Z,101983.84
2022-08-30T20:40:50.432Z,101988.56
2022-08-30T20:43:18.943Z,101999.25
2022-08-30T20:45:46.060Z,101993.53
2022-08-30T20:48:13.200Z,101997.25
2022-08-30T20:50:40.481Z,101999.47
2022-08-30T20:53:07.362Z,101997.78
2022-08-30T20:55:34.579Z,101995.25
2022-08-30T20:58:01.429Z,101993.03
2022-08-30T21:00:28.324Z,101987.16
2022-08-30T21:02:55.322Z,101984.38
2022-08-30T21:05:22.242Z,101987.69
2022-08-30T21:07:49.239Z,101989.38
2022-08-30T21:10:21.302Z,101988.41
2022-08-30T21:12:50.225Z,101981.47
2022-08-30T21:15:36.197Z,101984.09
2022-08-30T21:18:03.581Z,101987.28
2022-08-30T21:20:30.421Z,101984.91
2022-08-30T21:22:57.285Z,101981.00
2022-08-30T21:25:24.202Z,101983.94
2022-08-30T21:27:53.078Z,101982.41
2022-08-30T21:30:20.040Z,101971.75
2022-08-30T21:32:46.912Z,101986.75
2022-08-30T21:35:32.139Z,101984.09
2022-08-30T21:37:58.961Z,101983.81
2022-08-30T21:40:25.857Z,101983.66
2022-08-30T21:42:52.781Z,101982.28
2022-08-30T21:45:19.782Z,101977.28
2022-08-30T21:47:46.684Z,101973.00
2022-08-30T21:50:13.561Z,101965.81
2022-08-30T21:52:40.440Z,101969.94
2022-08-30T21:55:07.638Z,101979.38
2022-08-30T21:57:34.478Z,101982.03
2022-08-30T22:00:01.383Z,101982.19
2022-08-30T22:02:29.226Z,101983.56
2022-08-30T22:04:56.191Z,101983.81
2022-08-30T22:07:23.060Z,101983.81
2022-08-30T22:09:49.982Z,101979.34
2022-08-30T22:12:16.999Z,101976.25
2022-08-30T22:14:44.018Z,101980.56
2022-08-30T22:17:11.531Z,101981.25
2022-08-30T22:19:38.442Z,101983.06
2022-08-30T22:22:06.059Z,101983.91
2022-08-30T22:24:33.118Z,101981.56
2022-08-30T22:27:01.733Z,101990.91
2022-08-30T22:29:29.379Z,101985.22
2022-08-30T22:31:56.351Z,101975.66
2022-08-30T22:34:23.236Z,101976.38
2022-08-30T22:36:50.153Z,101981.94
2022-08-30T22:39:17.017Z,101982.66
2022-08-30T22:41:44.300Z,101970.47
2022-08-30T22:44:11.618Z,101983.22
2022-08-30T22:46:38.765Z,101986.41
2022-08-30T22:49:07.021Z,101993.06
2022-08-30T22:51:34.018Z,101990.38
2022-08-30T22:54:01.330Z,101993.13
2022-08-30T22:56:28.358Z,101988.25
2022-08-30T22:58:55.544Z,101994.09
2022-08-30T23:01:36.884Z,101982.00
2022-08-30T23:04:06.769Z,101984.63
2022-08-30T23:06:33.616Z,101995.31
2022-08-30T23:09:00.517Z,101993.66
2022-08-30T23:11:27.401Z,101992.94
2022-08-30T23:13:54.445Z,101994.09
2022-08-30T23:16:21.423Z,101993.94
2022-08-30T23:18:48.522Z,101992.41
2022-08-30T23:21:23.001Z,101990.59
2022-08-30T23:24:09.179Z,101998.50
2022-08-30T23:26:54.999Z,101982.28
2022-08-30T23:29:40.238Z,101996.72
2022-08-30T23:32:25.558Z,101998.75
2022-08-30T23:35:10.763Z,101997.66
2022-08-30T23:37:55.901Z,101993.34
2022-08-30T23:40:41.212Z,101988.50
2022-08-30T23:43:27.880Z,102001.13
2022-08-30T23:46:17.031Z,101998.63
2022-08-30T23:49:05.660Z,101995.03
2022-08-30T23:51:50.923Z,101990.38
2022-08-30T23:54:35.979Z,101989.16
2022-08-30T23:57:21.233Z,102000.06
